EGBBELLX

Guest
Details From EGBB - Birmingham
To ELLX - Luxembourg
Flight Number -
Tags Decoded
Created
Modified
Stats Distance 345 nm / 639 km
Max Altitude 0 ft / 0 m
Waypoints 3
Social Downloads 0
Likes 0
Share VATSIM

Download

Looking for another format? Having issues loading an existing format? Contact us
Advertisement - Login to hide

Notes

Decoded

Route

EGBB DVR10 ELLX

ID Type Via Altitude Latitude Longitude Leg Dist Tot Dist Heading (true) Name
O EGBB APT - 0 ft / 0 m 52.45113˚ -1.75493˚ - 0 nm - -
DVR10 FIX - 0 ft / 0 m 51.14972˚ 1.62528˚ 147 nm 147 nm 121° / 123° -
O ELLX APT - 0 ft / 0 m 49.61767˚ 6.18746˚ 197 nm 345 nm 116° / 120° -

Altitude Profile

Advertisement - Login to hide

Weather


0- 5 10 15 20 25 30 35+ Temperature / ° C

Clouds and Precipitation
Forecast for 2018-05-24 18:00 UTC. Updated an hour ago

Ground ~20,000 ft ~40,000 ft Winds

EGBB

Details ICAO EGBB (BHX)
Name Birmingham
Region United Kingdom
Timezone Europe/London (UTC+1.0)
Stats Elevation 327 ft / 100 m (AMSL)
Location 52.455966° -1.750378°
Runways 1
Magnetic Variation 1.073° W

METAR

EGBB 241750Z 05011KT CAVOK 20/09 Q1019

Decode

TAF

TAF EGBB 241702Z 2418/2518 04009KT 9999 SCT030 TEMPO 2421/2515 6000 SHRA PROB30 TEMPO 2423/2511 3000 +SHRA BKN012 BECMG 2501/2504 SCT006 BKN012 PROB30 2503/2512 BKN008 PROB40 TEMPO 2512/2518 BKN015

Decode

Departure Runways

ID Width Length Bearing (true) Bearing (mag) Surface Threshold Offset Overrun Length
15 151 ft / 46 m 8,477 ft / 2,584 m 145.87° 146.94° Asphalt 925 ft / 282 m 0 ft / 0 m
33 151 ft / 46 m 8,477 ft / 2,584 m 325.89° 326.96° Asphalt 958 ft / 292 m 0 ft / 0 m

ELLX

Details ICAO ELLX (LUX)
Name Luxembourg
Region Luxembourg
Timezone Europe/Luxembourg (UTC+2.0)
Stats Elevation 1,158 ft / 353 m (AMSL)
Location 49.626599° 6.211506°
Runways 1
Magnetic Variation 1.747° E

METAR

ELLX 241750Z 10006KT 9999 -RA SCT022CB BKN090 16/15 Q1017 NOSIG

Decode

TAF

TAF TAF ELLX 241700Z 2418/2524 04008KT 9999 SCT030 TEMPO 2418/2424 6000 SHRA SCT020CB PROB40 TEMPO 2418/2422 VRB15G30KT 2500 TSRA TSRAGR BKN020CB TEMPO 2501/2508 3000 BR BKN010 BECMG 2511/2514 CAVOK

Decode

Destination Runways

ID Width Length Bearing (true) Bearing (mag) Surface Threshold Offset Overrun Length
06 197 ft / 60 m 13,135 ft / 4,004 m 60.14° 58.39° Asphalt 0 ft / 0 m 0 ft / 0 m
24 197 ft / 60 m 13,135 ft / 4,004 m 240.18° 238.43° Asphalt 0 ft / 0 m 180 ft / 55 m

Approach Navaids

Runway Type Ident Frequency Range Bearing (true) Bearing (mag) Slope Elevation
06 Localiser ILE 109.90 MHz 18 nm / 33 km 60.21° 58.46° - 1,158 ft / 353 m (AMSL)
06 Glidescope ILE 109.90 MHz 10 nm / 19 km 60.16° 58.41° 3.00° 1,158 ft / 353 m (AMSL)
06 DME ILE 109.90 MHz 18 nm / 33 km - - - 1,158 ft / 353 m (AMSL)
24 Localiser ILW 110.70 MHz 18 nm / 33 km 239.94° 238.19° - 1,158 ft / 353 m (AMSL)
24 Glidescope ILW 110.70 MHz 10 nm / 19 km 240.16° 238.41° 3.00° 1,158 ft / 353 m (AMSL)
24 DME ILW 110.70 MHz 18 nm / 33 km - - - 1,158 ft / 353 m (AMSL)

Popular Alternatives